This is the latest recevied weather packets stored in our database for station/object OH2TI. If no packets are shown the sender has not sent any weather packets the latest 10 day(s).
| Time | Temp. | Humidity | Pressure | Rain* | Wind** | Luminosity | Snow |
|---|---|---|---|---|---|---|---|
| 1777824709 | 13.89° C | 61% | 1004.5 hPa | - | - | - | - |
| 1777824129 | 13.89° C | 61% | 1004.3 hPa | - | - | - | - |
| 1777823612 | 13.89° C | 61% | 1004.3 hPa | - | - | - | - |
| 1777822954 | 13.89° C | 61% | 1004.3 hPa | - | - | - | - |
| 1777822297 | 13.89° C | 61% | 1004.3 hPa | - | - | - | - |
| 1777821569 | 13.89° C | 63% | 1004.3 hPa | - | - | - | - |
| 1777821004 | 12.78° C | 65% | 1004.2 hPa | - | - | - | - |
| 1777820227 | 12.78° C | 66% | 1004.3 hPa | - | - | - | - |
| 1777819739 | 12.22° C | 68% | 1004.3 hPa | - | - | - | - |
| 1777819399 | 11.67° C | 69% | 1004.3 hPa | - | - | - | - |
| 1777818539 | 11.67° C | 69% | 1004.2 hPa | - | - | - | - |
| 1777817944 | 12.22° C | 68% | 1004.2 hPa | - | - | - | - |
| 1777817189 | 12.78° C | 66% | 1004.3 hPa | - | - | - | - |
| 1777816852 | 12.22° C | 67% | 1004.3 hPa | - | - | - | - |
| 1777816057 | 13.89° C | 62% | 1004.2 hPa | - | - | - | - |
| 1777815300 | 14.44° C | 59% | 1004.4 hPa | - | - | - | - |
| 1777814992 | 14.44° C | 59% | 1004.4 hPa | - | - | - | - |
| 1777814490 | 13.89° C | 61% | 1004.4 hPa | - | - | - | - |
| 1777814002 | 12.78° C | 63% | 1004.3 hPa | - | - | - | - |
| 1777813267 | 12.78° C | 62% | 1004.3 hPa | - | - | - | - |
| 1777812692 | 13.89° C | 59% | 1004.5 hPa | - | - | - | - |
| 1777811970 | 13.89° C | 60% | 1004.4 hPa | - | - | - | - |
| 1777811123 | 13.89° C | 59% | 1004.5 hPa | - | - | - | - |
| 1777810435 | 13.89° C | 59% | 1004.6 hPa | - | - | - | - |
| 1777809645 | 13.89° C | 57% | 1004.6 hPa | - | - | - | - |
* Rain since midnight (hover to see other rain measurements)
** Current wind speed in m/s (hover to see current wind gust speed)